createdAt,value
2019-04-11T00:01:36.727Z,24.43
2019-04-11T00:04:01.897Z,18.80
2019-04-11T00:06:33.831Z,18.40
2019-04-11T00:09:08.819Z,23.53
2019-04-11T00:11:39.388Z,23.93
2019-04-11T00:14:11.560Z,21.07
2019-04-11T00:16:42.254Z,22.03
2019-04-11T00:19:13.679Z,18.80
2019-04-11T00:21:45.244Z,23.33
2019-04-11T00:24:15.784Z,23.30
2019-04-11T00:26:46.579Z,21.13
2019-04-11T00:29:18.397Z,22.07
2019-04-11T00:31:49.531Z,18.20
2019-04-11T00:34:20.632Z,22.03
2019-04-11T00:36:51.225Z,22.40
2019-04-11T00:39:21.715Z,20.13
2019-04-11T00:41:52.414Z,23.93
2019-04-11T00:44:23.084Z,21.07
2019-04-11T00:46:53.609Z,17.67
2019-04-11T00:49:24.251Z,22.13
2019-04-11T00:51:54.741Z,18.50
2019-04-11T00:54:25.445Z,19.13
2019-04-11T00:56:56.761Z,20.90
2019-04-11T00:59:28.584Z,20.97
2019-04-11T01:01:59.153Z,21.17
2019-04-11T01:04:30.185Z,19.00
2019-04-11T01:07:00.780Z,23.87
2019-04-11T01:09:32.598Z,17.80
2019-04-11T01:12:03.236Z,17.87
2019-04-11T01:14:34.173Z,19.57
2019-04-11T01:17:07.507Z,21.07
2019-04-11T01:19:38.619Z,23.33
2019-04-11T01:22:09.765Z,21.20
2019-04-11T01:24:40.252Z,16.90
2019-04-11T01:27:11.794Z,17.03
2019-04-11T01:29:42.294Z,21.60
2019-04-11T01:32:13.907Z,23.43
2019-04-11T01:34:44.700Z,20.47
2019-04-11T01:37:15.554Z,20.87
2019-04-11T01:39:54.243Z,15.07
2019-04-11T01:42:25.083Z,17.13
2019-04-11T01:44:56.916Z,18.80
2019-04-11T01:47:59.455Z,17.30
2019-04-11T01:50:32.815Z,19.10
2019-04-11T01:53:03.662Z,21.27
2019-04-11T01:55:34.786Z,16.30
2019-04-11T01:58:06.668Z,15.20
2019-04-11T02:01:02.237Z,15.20
2019-04-11T02:04:09.873Z,15.33
2019-04-11T02:06:40.490Z,15.67
2019-04-11T02:09:15.846Z,16.90
2019-04-11T02:11:47.693Z,16.77
2019-04-11T02:14:20.737Z,16.17
2019-04-11T02:16:52.024Z,17.33
2019-04-11T02:19:23.778Z,16.87
2019-04-11T02:21:56.310Z,15.80
2019-04-11T02:24:45.845Z,16.57
2019-04-11T02:27:21.034Z,16.60
2019-04-11T02:29:51.650Z,26.77
2019-04-11T02:32:25.431Z,16.20
2019-04-11T02:34:58.955Z,16.73
2019-04-11T02:37:29.232Z,17.00
2019-04-11T02:40:00.161Z,16.00
2019-04-11T02:42:33.017Z,17.80
2019-04-11T02:45:19.586Z,17.13
2019-04-11T02:47:39.141Z,20.20
2019-04-11T02:50:10.407Z,19.17
2019-04-11T02:52:42.210Z,18.87
2019-04-11T02:55:14.471Z,15.50
2019-04-11T02:57:46.035Z,14.83
2019-04-11T03:00:18.617Z,18.47
2019-04-11T03:02:52.289Z,13.27
2019-04-11T03:05:22.305Z,18.23
2019-04-11T03:07:54.092Z,20.07
2019-04-11T03:10:24.962Z,16.87
2019-04-11T03:12:56.744Z,14.77
2019-04-11T03:15:46.349Z,23.67
2019-04-11T03:18:02.934Z,19.23
2019-04-11T03:20:39.546Z,22.50
2019-04-11T03:23:08.044Z,19.37
2019-04-11T03:25:38.513Z,18.40
2019-04-11T03:28:13.735Z,19.77
2019-04-11T03:30:59.244Z,21.60
2019-04-11T03:34:09.542Z,15.50
2019-04-11T03:38:44.273Z,18.73
2019-04-11T03:41:14.219Z,17.33
2019-04-11T03:43:33.795Z,17.37
2019-04-11T03:46:16.399Z,20.13
2019-04-11T03:48:40.765Z,19.27
2019-04-11T03:51:01.863Z,19.23
2019-04-11T03:53:34.291Z,19.90
2019-04-11T03:56:05.268Z,18.83
2019-04-11T03:58:37.175Z,16.00
2019-04-11T04:01:10.907Z,20.13
2019-04-11T04:03:40.057Z,19.03
2019-04-11T04:06:10.664Z,15.53
2019-04-11T04:08:42.356Z,21.33
2019-04-11T04:11:19.060Z,16.87
2019-04-11T04:14:17.221Z,20.63
2019-04-11T04:17:06.448Z,25.10
2019-04-11T04:19:54.813Z,20.93
2019-04-11T04:22:32.910Z,18.93
2019-04-11T04:25:04.399Z,18.67
2019-04-11T04:27:35.406Z,22.40
2019-04-11T04:30:08.620Z,18.87
2019-04-11T04:32:40.563Z,19.67
2019-04-11T04:35:16.798Z,17.10
2019-04-11T04:37:47.460Z,18.40
2019-04-11T04:40:35.579Z,21.57
2019-04-11T04:42:54.442Z,20.90
2019-04-11T04:45:23.875Z,19.50
2019-04-11T04:48:02.381Z,18.70
2019-04-11T04:50:28.518Z,21.10
2019-04-11T04:53:00.941Z,21.73
2019-04-11T04:55:32.608Z,26.27
2019-04-11T04:58:04.828Z,22.23
2019-04-11T05:00:35.423Z,21.27
2019-04-11T05:03:07.498Z,22.20
2019-04-11T05:05:38.394Z,21.37
2019-04-11T05:08:10.668Z,21.30
2019-04-11T05:10:41.536Z,22.17
2019-04-11T05:13:13.649Z,24.83
2019-04-11T05:15:45.388Z,21.43
2019-04-11T05:18:18.048Z,28.07
2019-04-11T05:20:49.311Z,18.47
2019-04-11T05:23:19.783Z,26.27
2019-04-11T05:25:50.847Z,22.13
2019-04-11T05:28:21.515Z,24.00
2019-04-11T05:30:53.144Z,19.97
2019-04-11T05:33:23.698Z,21.10
2019-04-11T05:35:54.301Z,19.60
2019-04-11T05:38:25.258Z,26.13
2019-04-11T05:40:56.662Z,30.30
2019-04-11T05:43:31.437Z,25.30
2019-04-11T05:46:00.271Z,27.03
2019-04-11T05:48:50.652Z,21.20
2019-04-11T05:51:23.504Z,22.73
2019-04-11T05:53:54.605Z,21.17
2019-04-11T05:56:30.933Z,23.00
2019-04-11T05:59:14.775Z,27.60
2019-04-11T06:01:48.817Z,21.27
2019-04-11T06:04:30.254Z,22.97
2019-04-11T06:07:23.145Z,25.73
2019-04-11T06:09:56.585Z,25.27
2019-04-11T06:12:39.853Z,24.83
2019-04-11T06:15:21.510Z,24.87
2019-04-11T06:17:52.365Z,28.77
2019-04-11T06:20:39.979Z,25.50
2019-04-11T06:23:21.280Z,24.30
2019-04-11T06:26:23.084Z,26.10
2019-04-11T06:28:57.075Z,24.93
2019-04-11T06:31:52.632Z,23.33
2019-04-11T06:34:25.542Z,26.57
2019-04-11T06:37:14.919Z,28.70
2019-04-11T06:39:53.956Z,20.70
2019-04-11T06:42:39.889Z,20.87
2019-04-11T06:45:29.316Z,26.83
2019-04-11T06:48:26.284Z,26.47
2019-04-11T06:51:16.159Z,25.00
2019-04-11T06:54:06.358Z,25.30
2019-04-11T06:56:43.797Z,22.70
2019-04-11T06:59:20.773Z,24.23
2019-04-11T07:01:51.573Z,29.43
2019-04-11T07:04:25.445Z,20.50
2019-04-11T07:06:56.857Z,25.87
2019-04-11T07:09:53.446Z,28.90
2019-04-11T07:12:43.173Z,25.87
2019-04-11T07:15:19.385Z,27.53
2019-04-11T07:18:07.651Z,32.83
2019-04-11T07:20:58.215Z,23.03
2019-04-11T07:23:47.039Z,29.70
2019-04-11T07:26:37.306Z,18.40
2019-04-11T07:29:27.041Z,24.80
2019-04-11T07:32:16.202Z,22.23
2019-04-11T07:35:19.318Z,32.70
2019-04-11T07:37:53.275Z,28.20
2019-04-11T07:40:43.078Z,26.17
2019-04-11T07:43:31.444Z,26.60
2019-04-11T07:46:25.159Z,27.33
2019-04-11T07:49:08.144Z,28.37
2019-04-11T07:51:48.675Z,30.60
2019-04-11T07:54:22.208Z,22.57
2019-04-11T07:57:10.674Z,32.07
2019-04-11T08:00:00.234Z,27.87
2019-04-11T08:02:48.599Z,26.77
2019-04-11T08:05:54.426Z,29.60
2019-04-11T08:08:43.344Z,28.23
2019-04-11T08:11:21.252Z,29.17
2019-04-11T08:14:04.246Z,24.57
2019-04-11T08:16:53.281Z,30.00
2019-04-11T08:19:42.760Z,25.37
2019-04-11T08:22:30.879Z,27.83
2019-04-11T08:25:38.329Z,29.40
2019-04-11T08:28:13.586Z,23.83
2019-04-11T08:31:07.778Z,33.00
2019-04-11T08:33:38.507Z,31.97
2019-04-11T08:36:26.896Z,31.73
2019-04-11T08:38:58.532Z,30.87
2019-04-11T08:41:49.662Z,36.30
2019-04-11T08:44:24.473Z,28.33
2019-04-11T08:47:00.900Z,30.77
2019-04-11T08:49:39.627Z,27.87
2019-04-11T08:52:20.928Z,26.97
2019-04-11T08:55:08.731Z,35.50
2019-04-11T08:57:45.009Z,36.57
2019-04-11T09:00:44.201Z,29.63
2019-04-11T09:03:58.193Z,28.90
2019-04-11T09:06:28.359Z,28.10
2019-04-11T09:09:36.820Z,31.57
2019-04-11T09:12:11.999Z,29.27
2019-04-11T09:15:02.557Z,34.03
2019-04-11T09:17:37.261Z,24.90
2019-04-11T09:20:29.973Z,25.63
2019-04-11T09:23:09.290Z,25.03
2019-04-11T09:25:57.739Z,26.57
2019-04-11T09:28:40.276Z,23.53
2019-04-11T09:31:42.176Z,29.60
2019-04-11T09:34:30.903Z,21.60
2019-04-11T09:37:32.307Z,25.40
2019-04-11T09:40:26.048Z,29.50
2019-04-11T09:43:22.552Z,29.10
2019-04-11T09:46:10.674Z,26.17
2019-04-11T09:49:09.173Z,26.70
2019-04-11T09:51:47.776Z,24.07
2019-04-11T09:54:40.137Z,23.20
2019-04-11T09:57:36.488Z,24.23
2019-04-11T10:00:28.867Z,26.13
2019-04-11T10:03:13.213Z,23.97
2019-04-11T10:05:54.562Z,22.53
2019-04-11T10:08:39.614Z,21.73
2019-04-11T10:11:28.238Z,29.30
2019-04-11T10:14:09.578Z,20.27
2019-04-11T10:16:58.212Z,19.53
2019-04-11T10:19:46.693Z,22.50
2019-04-11T10:22:48.554Z,24.57
2019-04-11T10:25:32.059Z,24.10
2019-04-11T10:28:21.825Z,20.07
2019-04-11T10:31:10.664Z,23.30
2019-04-11T10:33:51.706Z,21.97
2019-04-11T10:36:27.372Z,19.33
2019-04-11T10:39:08.995Z,25.87
2019-04-11T10:41:40.483Z,20.03
2019-04-11T10:44:11.754Z,22.73
2019-04-11T10:46:59.840Z,22.70
2019-04-11T10:49:47.967Z,23.33
2019-04-11T10:52:26.676Z,23.63
2019-04-11T10:55:19.765Z,25.80
2019-04-11T10:58:08.806Z,18.57
2019-04-11T11:00:43.558Z,24.37
2019-04-11T11:03:22.257Z,20.33
2019-04-11T11:05:55.520Z,21.57
2019-04-11T11:08:33.375Z,18.13
2019-04-11T11:11:16.017Z,20.80
2019-04-11T11:14:22.709Z,16.37
2019-04-11T11:17:43.245Z,22.43
2019-04-11T11:20:16.736Z,24.67
2019-04-11T11:23:02.870Z,24.17
2019-04-11T11:25:51.618Z,18.73
2019-04-11T11:28:23.794Z,22.23
2019-04-11T11:31:07.440Z,21.10
2019-04-11T11:33:38.560Z,19.83
2019-04-11T11:36:27.281Z,18.50
2019-04-11T11:39:20.115Z,19.17
2019-04-11T11:42:02.148Z,19.87
2019-04-11T11:44:42.926Z,20.90
2019-04-11T11:47:35.659Z,22.87
2019-04-11T11:50:06.005Z,22.80
2019-04-11T11:53:08.156Z,19.80
2019-04-11T11:55:38.461Z,19.63
2019-04-11T11:58:35.305Z,22.33
2019-04-11T12:01:08.959Z,20.30
2019-04-11T12:04:06.817Z,16.80
2019-04-11T12:06:38.775Z,17.93
2019-04-11T12:09:28.833Z,21.20
2019-04-11T12:12:04.362Z,20.93
2019-04-11T12:14:53.951Z,22.73
2019-04-11T12:17:44.904Z,21.80
2019-04-11T12:20:22.958Z,28.27
2019-04-11T12:22:54.140Z,26.87
2019-04-11T12:25:33.424Z,24.53
2019-04-11T12:28:14.665Z,18.00
2019-04-11T12:30:45.414Z,21.80
2019-04-11T12:33:50.065Z,22.77
2019-04-11T12:36:23.926Z,27.93
2019-04-11T12:39:13.417Z,26.07
2019-04-11T12:41:55.599Z,23.13
2019-04-11T12:44:51.326Z,23.70
2019-04-11T12:47:33.878Z,27.23
2019-04-11T12:50:29.959Z,25.90
2019-04-11T12:53:20.449Z,24.30
2019-04-11T12:56:28.347Z,28.17
2019-04-11T12:59:04.318Z,26.70
2019-04-11T13:01:52.562Z,28.67
2019-04-11T13:04:44.103Z,29.60
2019-04-11T13:07:34.181Z,23.37
2019-04-11T13:10:26.426Z,30.57
2019-04-11T13:13:18.760Z,27.63
2019-04-11T13:15:59.080Z,19.40
2019-04-11T13:18:45.406Z,25.80
2019-04-11T13:21:25.415Z,33.33
2019-04-11T13:24:05.927Z,24.67
2019-04-11T13:27:04.620Z,27.20
2019-04-11T13:29:54.182Z,24.30
2019-04-11T13:32:32.607Z,26.33
2019-04-11T13:35:22.018Z,27.47
2019-04-11T13:38:14.141Z,24.97
2019-04-11T13:41:03.646Z,21.17
2019-04-11T13:43:45.778Z,21.63
2019-04-11T13:46:47.421Z,21.63
2019-04-11T13:49:37.083Z,28.77
2019-04-11T13:52:26.716Z,25.43
2019-04-11T13:55:15.824Z,22.90
2019-04-11T13:58:07.060Z,25.37
2019-04-11T14:00:40.156Z,21.80
2019-04-11T14:03:48.746Z,23.73
2019-04-11T14:06:26.630Z,24.40
2019-04-11T14:09:08.937Z,24.27
2019-04-11T14:11:43.626Z,24.10
2019-04-11T14:14:19.766Z,23.07
2019-04-11T14:17:00.370Z,24.87
2019-04-11T14:20:02.004Z,25.90
2019-04-11T14:22:45.256Z,25.07
2019-04-11T14:25:44.013Z,21.90
2019-04-11T14:28:14.868Z,27.43
2019-04-11T14:31:07.171Z,17.57
2019-04-11T14:33:38.978Z,26.53
2019-04-11T14:36:33.419Z,37.53
2019-04-11T14:39:01.056Z,23.97
2019-04-11T14:41:45.246Z,27.03
2019-04-11T14:44:16.473Z,27.33
2019-04-11T14:47:15.926Z,21.63
2019-04-11T14:49:49.253Z,21.07
2019-04-11T14:52:37.600Z,23.17
2019-04-11T14:55:08.759Z,20.77
2019-04-11T14:57:55.790Z,22.30
2019-04-11T15:00:37.952Z,22.83
2019-04-11T15:03:45.785Z,23.47
2019-04-11T15:06:35.280Z,13.77
2019-04-11T15:09:29.316Z,19.40
2019-04-11T15:12:20.568Z,33.63
2019-04-11T15:15:22.461Z,26.00
2019-04-11T15:18:03.268Z,20.40
2019-04-11T15:20:55.995Z,20.70
2019-04-11T15:23:32.150Z,28.67
2019-04-11T15:26:19.850Z,26.13
2019-04-11T15:28:56.138Z,21.70
2019-04-11T15:31:54.696Z,24.60
2019-04-11T15:34:37.434Z,25.13
2019-04-11T15:37:30.211Z,25.17
2019-04-11T15:40:28.725Z,17.20
2019-04-11T15:43:16.877Z,16.17
2019-04-11T15:45:58.258Z,20.83
2019-04-11T15:48:51.665Z,22.77
2019-04-11T15:51:57.142Z,22.07
2019-04-11T15:54:46.589Z,22.53
2019-04-11T15:57:30.363Z,24.20
2019-04-11T16:00:29.031Z,22.67
2019-04-11T16:03:18.889Z,27.43
2019-04-11T16:06:07.230Z,21.40
2019-04-11T16:08:43.736Z,22.67
2019-04-11T16:11:51.836Z,25.20
2019-04-11T16:14:28.206Z,22.57
2019-04-11T16:17:36.273Z,17.33
2019-04-11T16:20:27.074Z,26.47
2019-04-11T16:23:26.964Z,21.00
2019-04-11T16:26:00.012Z,14.60
2019-04-11T16:28:52.349Z,21.63
2019-04-11T16:31:29.504Z,18.77
2019-04-11T16:34:22.146Z,23.37
2019-04-11T16:36:55.320Z,17.77
2019-04-11T16:39:55.147Z,21.13
2019-04-11T16:42:35.591Z,21.70
2019-04-11T16:45:39.121Z,20.70
2019-04-11T16:48:09.719Z,20.10
2019-04-11T16:50:41.514Z,33.30
2019-04-11T16:53:12.126Z,26.33
2019-04-11T16:55:43.587Z,22.07
2019-04-11T16:58:17.002Z,20.13
2019-04-11T17:00:52.243Z,22.43
2019-04-11T17:03:19.111Z,24.73
2019-04-11T17:05:57.420Z,23.57
2019-04-11T17:08:35.378Z,20.87
2019-04-11T17:11:21.040Z,19.77
2019-04-11T17:13:51.599Z,23.43
2019-04-11T17:16:22.704Z,20.23
2019-04-11T17:18:53.274Z,26.77
2019-04-11T17:21:23.750Z,21.77
2019-04-11T17:23:54.432Z,19.10
2019-04-11T17:26:25.078Z,20.27
2019-04-11T17:28:55.546Z,22.73
2019-04-11T17:31:27.095Z,22.77
2019-04-11T17:34:01.447Z,24.80
2019-04-11T17:36:32.741Z,25.80
2019-04-11T17:39:02.084Z,28.47
2019-04-11T17:41:34.198Z,26.43
2019-04-11T17:44:09.436Z,28.00
2019-04-11T17:46:42.679Z,32.20
2019-04-11T17:49:13.271Z,24.33
2019-04-11T17:51:54.944Z,26.03
2019-04-11T17:54:16.970Z,26.13
2019-04-11T17:56:47.512Z,26.87
2019-04-11T17:59:18.061Z,26.27
2019-04-11T18:01:48.522Z,27.33
2019-04-11T18:04:19.077Z,25.90
2019-04-11T18:06:49.683Z,30.67
2019-04-11T18:09:25.585Z,33.20
2019-04-11T18:11:55.901Z,30.53
2019-04-11T18:14:24.693Z,34.23
2019-04-11T18:16:55.209Z,38.17
2019-04-11T18:19:25.831Z,36.40
2019-04-11T18:22:07.395Z,33.83
2019-04-11T18:24:28.592Z,41.53
2019-04-11T18:26:59.096Z,37.17
2019-04-11T18:29:29.624Z,35.97
2019-04-11T18:32:00.257Z,35.93
2019-04-11T18:34:31.710Z,32.57
2019-04-11T18:37:04.371Z,30.17
2019-04-11T18:39:36.073Z,31.50
2019-04-11T18:42:07.395Z,27.10
2019-04-11T18:44:38.064Z,32.47
2019-04-11T18:47:08.616Z,32.50
2019-04-11T18:49:39.297Z,27.73
2019-04-11T18:52:19.710Z,33.40
2019-04-11T18:54:43.282Z,26.03
2019-04-11T18:57:13.814Z,30.33
2019-04-11T18:59:44.356Z,33.77
2019-04-11T19:02:14.899Z,31.50
2019-04-11T19:04:45.549Z,32.07
2019-04-11T19:07:27.300Z,29.20
2019-04-11T19:09:50.999Z,32.37
2019-04-11T19:12:21.556Z,32.00
2019-04-11T19:14:54.449Z,26.33
2019-04-11T19:17:26.944Z,32.60
2019-04-11T19:19:57.467Z,27.47
2019-04-11T19:22:37.678Z,28.13
2019-04-11T19:25:00.035Z,30.47
2019-04-11T19:27:30.537Z,29.23
2019-04-11T19:30:01.091Z,25.93
2019-04-11T19:32:31.717Z,27.63
2019-04-11T19:35:02.219Z,28.13
2019-04-11T19:37:32.814Z,25.60
2019-04-11T19:40:05.650Z,22.13
2019-04-11T19:42:37.257Z,18.33
2019-04-11T19:45:08.834Z,23.90
2019-04-11T19:47:39.582Z,38.07
2019-04-11T19:50:11.570Z,44.00
2019-04-11T19:52:45.868Z,37.07
2019-04-11T19:55:42.572Z,34.17
2019-04-11T19:58:13.105Z,25.63
2019-04-11T20:00:43.771Z,34.57
2019-04-11T20:03:15.369Z,34.80
2019-04-11T20:05:47.230Z,32.00
2019-04-11T20:08:17.849Z,32.33
2019-04-11T20:10:48.314Z,36.73
2019-04-11T20:13:18.995Z,31.37
2019-04-11T20:15:50.661Z,40.57
2019-04-11T20:18:23.318Z,36.80
2019-04-11T20:20:54.226Z,27.83
2019-04-11T20:23:25.832Z,33.67
2019-04-11T20:25:58.422Z,26.73
2019-04-11T20:28:28.995Z,26.13
2019-04-11T20:31:01.075Z,26.03
2019-04-11T20:33:34.727Z,26.73
2019-04-11T20:36:05.505Z,28.93
2019-04-11T20:38:36.063Z,28.93
2019-04-11T20:41:06.460Z,24.83
2019-04-11T20:43:37.170Z,24.87
2019-04-11T20:46:07.733Z,28.33
2019-04-11T20:48:38.281Z,28.33
2019-04-11T20:51:08.776Z,25.10
2019-04-11T20:53:39.216Z,35.97
2019-04-11T20:56:10.610Z,24.47
2019-04-11T20:58:41.267Z,25.67
2019-04-11T21:01:11.773Z,31.20
2019-04-11T21:03:42.255Z,29.30
2019-04-11T21:06:12.928Z,33.57
2019-04-11T21:08:43.383Z,30.33
2019-04-11T21:11:13.897Z,26.10
2019-04-11T21:13:44.399Z,24.10
2019-04-11T21:16:14.894Z,26.23
2019-04-11T21:18:45.336Z,26.67
2019-04-11T21:21:15.745Z,28.40
2019-04-11T21:23:46.211Z,22.50
2019-04-11T21:26:16.651Z,29.27
2019-04-11T21:28:47.126Z,23.67
2019-04-11T21:31:17.578Z,27.13
2019-04-11T21:33:48.073Z,26.37
2019-04-11T21:36:18.548Z,27.93
2019-04-11T21:38:48.944Z,24.97
2019-04-11T21:41:19.396Z,28.40
2019-04-11T21:43:49.910Z,30.53
2019-04-11T21:46:20.337Z,32.80
2019-04-11T21:48:50.818Z,30.93
2019-04-11T21:51:21.292Z,27.10
2019-04-11T21:53:51.747Z,28.53
2019-04-11T21:56:22.269Z,21.57
2019-04-11T21:58:52.666Z,23.63
2019-04-11T22:01:24.872Z,26.13
2019-04-11T22:03:57.712Z,23.97
2019-04-11T22:06:30.326Z,31.63
2019-04-11T22:09:00.271Z,29.90
2019-04-11T22:11:33.373Z,25.63
2019-04-11T22:14:03.884Z,27.10
2019-04-11T22:16:34.451Z,29.07
2019-04-11T22:19:05.338Z,29.27
2019-04-11T22:21:35.839Z,30.20
2019-04-11T22:24:06.449Z,28.20
2019-04-11T22:26:37.009Z,21.93
2019-04-11T22:29:07.508Z,25.93
2019-04-11T22:31:37.961Z,20.23
2019-04-11T22:34:17.116Z,24.93
2019-04-11T22:36:47.681Z,27.23
2019-04-11T22:39:18.295Z,19.60
2019-04-11T22:41:48.735Z,22.73
2019-04-11T22:44:21.675Z,23.10
2019-04-11T22:46:52.234Z,20.73
2019-04-11T22:49:22.718Z,21.27
2019-04-11T22:51:53.153Z,29.53
2019-04-11T22:54:23.609Z,22.30
2019-04-11T22:56:54.631Z,22.70
2019-04-11T22:59:25.065Z,23.03
2019-04-11T23:01:57.024Z,23.23
2019-04-11T23:04:27.556Z,19.60
2019-04-11T23:06:57.976Z,26.10
2019-04-11T23:09:28.457Z,16.23
2019-04-11T23:12:00.463Z,19.33
2019-04-11T23:14:31.119Z,18.73
2019-04-11T23:17:01.580Z,17.43
2019-04-11T23:19:32.007Z,20.00
2019-04-11T23:22:02.525Z,29.67
2019-04-11T23:24:33.027Z,22.53
2019-04-11T23:27:03.545Z,17.97
2019-04-11T23:29:34.034Z,21.07
2019-04-11T23:32:04.603Z,21.10
2019-04-11T23:34:35.160Z,21.23
2019-04-11T23:37:05.656Z,20.10
2019-04-11T23:39:36.213Z,21.73
2019-04-11T23:42:06.586Z,22.07
2019-04-11T23:44:37.087Z,17.57
2019-04-11T23:47:08.651Z,18.23
2019-04-11T23:49:39.204Z,20.63
2019-04-11T23:52:09.638Z,23.90
2019-04-11T23:54:40.268Z,21.57
2019-04-11T23:57:10.774Z,21.63
2019-04-11T23:59:41.346Z,22.40
